createdAt,value
2023-05-05T00:02:15.571Z,6.80
2023-05-05T00:04:42.161Z,6.43
2023-05-05T00:07:08.844Z,6.03
2023-05-05T00:09:35.248Z,5.95
2023-05-05T00:12:01.653Z,6.00
2023-05-05T00:14:28.068Z,6.28
2023-05-05T00:16:54.458Z,7.00
2023-05-05T00:19:20.893Z,7.60
2023-05-05T00:21:47.288Z,8.07
2023-05-05T00:24:13.722Z,7.07
2023-05-05T00:26:40.199Z,7.90
2023-05-05T00:29:06.631Z,7.72
2023-05-05T00:31:33.300Z,7.45
2023-05-05T00:33:59.729Z,6.95
2023-05-05T00:36:26.149Z,7.05
2023-05-05T00:38:52.526Z,7.63
2023-05-05T00:41:18.903Z,6.95
2023-05-05T00:43:45.289Z,7.90
2023-05-05T00:46:22.500Z,7.78
2023-05-05T00:48:48.968Z,7.20
2023-05-05T00:51:16.827Z,7.95
2023-05-05T00:53:45.028Z,7.45
2023-05-05T00:56:15.985Z,7.47
2023-05-05T00:58:43.123Z,6.68
2023-05-05T01:01:10.729Z,7.15
2023-05-05T01:03:38.726Z,7.40
2023-05-05T01:06:20.749Z,7.72
2023-05-05T01:09:02.097Z,7.95
2023-05-05T01:11:47.090Z,8.17
2023-05-05T01:14:16.975Z,8.93
2023-05-05T01:16:56.034Z,7.30
2023-05-05T01:19:34.546Z,8.15
2023-05-05T01:22:02.717Z,7.88
2023-05-05T01:24:53.480Z,8.73
2023-05-05T01:27:34.244Z,7.85
2023-05-05T01:30:28.175Z,8.43
2023-05-05T01:32:58.346Z,7.82
2023-05-05T01:35:31.696Z,7.97
2023-05-05T01:37:57.978Z,8.85
2023-05-05T01:40:27.355Z,7.60
2023-05-05T01:42:54.871Z,8.73
2023-05-05T01:45:24.768Z,8.40
2023-05-05T01:47:52.036Z,8.85
2023-05-05T01:50:18.738Z,10.68
2023-05-05T01:52:45.852Z,10.23
2023-05-05T01:55:12.871Z,10.25
2023-05-05T01:57:39.539Z,10.05
2023-05-05T02:00:07.524Z,10.07
2023-05-05T02:02:35.121Z,10.20
2023-05-05T02:05:02.781Z,10.65
2023-05-05T02:07:30.828Z,10.30
2023-05-05T02:09:57.803Z,10.63
2023-05-05T02:12:24.350Z,10.18
2023-05-05T02:14:51.171Z,9.13
2023-05-05T02:17:19.189Z,9.20
2023-05-05T02:19:46.283Z,9.55
2023-05-05T02:22:12.669Z,9.98
2023-05-05T02:24:39.097Z,9.65
2023-05-05T02:27:07.333Z,9.85
2023-05-05T02:29:42.570Z,9.93
2023-05-05T02:32:16.977Z,10.23
2023-05-05T02:34:45.236Z,10.57
2023-05-05T02:37:15.782Z,12.40
2023-05-05T02:39:46.206Z,10.98
2023-05-05T02:42:16.902Z,10.18
2023-05-05T02:44:45.041Z,9.77
2023-05-05T02:47:11.461Z,10.50
2023-05-05T02:49:37.858Z,10.93
2023-05-05T02:52:04.413Z,9.90
2023-05-05T02:54:31.353Z,9.43
2023-05-05T02:56:58.459Z,9.38
2023-05-05T02:59:31.265Z,8.70
2023-05-05T03:02:08.179Z,9.23
2023-05-05T03:04:58.859Z,8.50
2023-05-05T03:07:30.598Z,7.68
2023-05-05T03:10:09.643Z,7.93
2023-05-05T03:12:39.568Z,7.90
2023-05-05T03:15:07.453Z,7.70
2023-05-05T03:17:35.042Z,7.50
2023-05-05T03:20:03.925Z,7.93
2023-05-05T03:22:30.607Z,8.02
2023-05-05T03:24:57.055Z,7.43
2023-05-05T03:27:23.426Z,8.23
2023-05-05T03:29:49.833Z,8.63
2023-05-05T03:32:16.380Z,8.63
2023-05-05T03:34:42.873Z,9.38
2023-05-05T03:37:09.250Z,9.02
2023-05-05T03:39:36.112Z,10.25
2023-05-05T03:42:02.500Z,10.00
2023-05-05T03:44:28.933Z,9.43
2023-05-05T03:46:55.336Z,10.43
2023-05-05T03:49:21.743Z,10.23
2023-05-05T03:51:48.128Z,11.32
2023-05-05T03:54:14.796Z,11.60
2023-05-05T03:56:41.234Z,11.82
2023-05-05T03:59:08.659Z,12.27
2023-05-05T04:01:37.901Z,13.10
2023-05-05T04:04:04.456Z,12.60
2023-05-05T04:06:32.000Z,11.85
2023-05-05T04:08:58.362Z,12.48
2023-05-05T04:11:24.907Z,13.13
2023-05-05T04:13:51.291Z,13.65
2023-05-05T04:16:17.690Z,14.85
2023-05-05T04:18:44.125Z,14.15
2023-05-05T04:21:10.561Z,14.20
2023-05-05T04:23:36.965Z,14.77
2023-05-05T04:26:03.352Z,13.65
2023-05-05T04:28:29.749Z,14.90
2023-05-05T04:30:56.148Z,15.65
2023-05-05T04:33:22.600Z,13.98
2023-05-05T04:35:48.985Z,14.65
2023-05-05T04:38:15.523Z,15.25
2023-05-05T04:40:41.959Z,15.77
2023-05-05T04:43:08.487Z,15.93
2023-05-05T04:45:34.881Z,15.60
2023-05-05T04:48:01.799Z,16.02
2023-05-05T04:50:28.194Z,16.27
2023-05-05T04:52:54.591Z,16.13
2023-05-05T04:55:21.115Z,16.15
2023-05-05T04:57:47.492Z,15.95
2023-05-05T05:00:14.162Z,16.95
2023-05-05T05:02:41.499Z,16.15
2023-05-05T05:05:08.421Z,15.63
2023-05-05T05:07:34.816Z,17.40
2023-05-05T05:10:01.205Z,18.75
2023-05-05T05:12:27.603Z,18.50
2023-05-05T05:14:53.987Z,18.60
2023-05-05T05:17:21.095Z,17.90
2023-05-05T05:19:47.494Z,19.88
2023-05-05T05:22:13.853Z,17.80
2023-05-05T05:24:40.258Z,19.40
2023-05-05T05:27:10.100Z,19.15
2023-05-05T05:29:36.799Z,18.75
2023-05-05T05:32:03.270Z,18.98
2023-05-05T05:34:29.822Z,19.17
2023-05-05T05:36:56.255Z,19.13
2023-05-05T05:39:23.181Z,18.77
2023-05-05T05:41:49.580Z,18.10
2023-05-05T05:44:15.975Z,18.02
2023-05-05T05:46:42.502Z,18.70
2023-05-05T05:49:09.030Z,18.50
2023-05-05T05:51:35.559Z,19.38
2023-05-05T05:54:01.940Z,19.60
2023-05-05T05:56:29.074Z,18.50
2023-05-05T05:58:55.555Z,18.42
2023-05-05T06:01:21.935Z,19.95
2023-05-05T06:03:48.427Z,18.65
2023-05-05T06:06:14.902Z,19.33
2023-05-05T06:08:41.398Z,19.00
2023-05-05T06:11:07.872Z,18.80
2023-05-05T06:13:34.251Z,18.55
2023-05-05T06:16:00.764Z,18.00
2023-05-05T06:18:27.332Z,18.17
2023-05-05T06:20:53.774Z,19.63
2023-05-05T06:23:20.144Z,20.40
2023-05-05T06:25:46.691Z,19.20
2023-05-05T06:28:13.059Z,19.20
2023-05-05T06:30:39.446Z,19.10
2023-05-05T06:33:05.977Z,19.02
2023-05-05T06:35:32.523Z,18.50
2023-05-05T06:37:58.966Z,17.45
2023-05-05T06:40:25.394Z,18.55
2023-05-05T06:42:51.787Z,18.60
2023-05-05T06:45:18.220Z,16.15
2023-05-05T06:47:44.675Z,16.13
2023-05-05T06:50:11.390Z,15.98
2023-05-05T06:52:37.906Z,14.60
2023-05-05T06:55:04.596Z,15.52
2023-05-05T06:57:31.031Z,14.00
2023-05-05T06:59:57.428Z,14.32
2023-05-05T07:02:26.007Z,14.25
2023-05-05T07:04:55.260Z,12.52
2023-05-05T07:07:21.818Z,13.75
2023-05-05T07:09:48.195Z,13.45
2023-05-05T07:12:14.577Z,13.38
2023-05-05T07:14:40.935Z,13.40
2023-05-05T07:17:07.320Z,13.65
2023-05-05T07:19:33.688Z,13.82
2023-05-05T07:22:00.058Z,13.07
2023-05-05T07:24:26.455Z,13.50
2023-05-05T07:26:52.832Z,13.30
2023-05-05T07:29:19.224Z,13.52
2023-05-05T07:31:45.883Z,12.10
2023-05-05T07:34:12.305Z,13.15
2023-05-05T07:36:38.710Z,13.48
2023-05-05T07:39:05.090Z,11.90
2023-05-05T07:41:31.605Z,12.23
2023-05-05T07:43:58.042Z,10.63
2023-05-05T07:46:24.444Z,10.95
2023-05-05T07:48:50.936Z,10.07
2023-05-05T07:51:17.386Z,9.73
2023-05-05T07:53:43.913Z,9.10
2023-05-05T07:56:10.481Z,9.40
2023-05-05T07:58:36.933Z,9.43
2023-05-05T08:01:05.752Z,9.07
2023-05-05T08:03:32.229Z,8.95
2023-05-05T08:06:07.332Z,8.18
2023-05-05T08:08:33.875Z,7.95
2023-05-05T08:11:01.143Z,8.07
2023-05-05T08:13:28.464Z,9.10
2023-05-05T08:15:54.944Z,8.07
2023-05-05T08:18:21.385Z,8.23
2023-05-05T08:20:47.849Z,8.73
2023-05-05T08:23:14.212Z,9.00
2023-05-05T08:25:40.780Z,7.38
2023-05-05T08:28:07.208Z,7.72
2023-05-05T08:30:34.965Z,7.00
2023-05-05T08:33:01.481Z,8.98
2023-05-05T08:35:27.970Z,9.38
2023-05-05T08:37:55.973Z,9.25
2023-05-05T08:40:29.986Z,9.25
2023-05-05T08:42:56.430Z,8.07
2023-05-05T08:45:22.827Z,10.05
2023-05-05T08:47:49.280Z,9.07
2023-05-05T08:50:17.247Z,8.15
2023-05-05T08:52:45.048Z,8.10
2023-05-05T08:55:21.287Z,8.35
2023-05-05T08:57:52.670Z,7.40
2023-05-05T09:00:19.846Z,8.18
2023-05-05T09:02:47.280Z,8.98
2023-05-05T09:05:13.746Z,8.23
2023-05-05T09:07:43.912Z,9.82
2023-05-05T09:10:11.807Z,9.00
2023-05-05T09:12:42.015Z,9.13
2023-05-05T09:15:10.521Z,8.98
2023-05-05T09:17:37.785Z,9.57
2023-05-05T09:20:08.760Z,9.80
2023-05-05T09:22:37.531Z,10.93
2023-05-05T09:25:05.930Z,8.93
2023-05-05T09:27:41.351Z,13.70
2023-05-05T09:30:09.437Z,13.93
2023-05-05T09:32:49.188Z,9.50
2023-05-05T09:35:16.666Z,10.20
2023-05-05T09:37:43.052Z,7.30
2023-05-05T09:40:10.141Z,9.95
2023-05-05T09:42:37.835Z,6.88
2023-05-05T09:45:26.029Z,7.05
2023-05-05T09:50:19.741Z,6.15
2023-05-05T09:52:55.414Z,5.43
2023-05-05T09:55:22.128Z,5.15
2023-05-05T09:57:48.569Z,5.35
2023-05-05T10:00:15.414Z,6.07
2023-05-05T10:02:41.992Z,5.50
2023-05-05T10:05:11.261Z,5.32
2023-05-05T10:07:38.870Z,5.78
2023-05-05T10:10:07.058Z,5.85
2023-05-05T10:12:37.527Z,4.97
2023-05-05T10:15:05.639Z,5.00
2023-05-05T10:17:33.549Z,5.22
2023-05-05T10:20:01.041Z,5.47
2023-05-05T10:22:29.584Z,5.22
2023-05-05T10:25:03.490Z,7.78
2023-05-05T10:27:34.632Z,4.38
2023-05-05T10:30:06.135Z,14.93
2023-05-05T10:32:59.283Z,5.18
2023-05-05T10:35:33.023Z,4.90
2023-05-05T10:38:00.049Z,4.93
2023-05-05T10:40:26.798Z,3.10
2023-05-05T10:42:54.104Z,4.10
2023-05-05T10:45:20.858Z,3.20
2023-05-05T10:47:47.632Z,2.85
2023-05-05T10:50:33.565Z,3.03
2023-05-05T10:53:16.685Z,4.20
2023-05-05T10:56:08.911Z,3.33
2023-05-05T11:01:33.799Z,3.83
2023-05-05T11:04:23.159Z,4.00
2023-05-05T11:07:08.123Z,3.55
2023-05-05T11:09:42.500Z,4.07
2023-05-05T11:12:09.129Z,4.55
2023-05-05T11:14:35.758Z,4.05
2023-05-05T11:17:02.374Z,4.38
2023-05-05T11:19:43.975Z,5.18
2023-05-05T11:22:10.747Z,3.97
2023-05-05T11:24:39.549Z,4.57
2023-05-05T11:27:06.236Z,5.00
2023-05-05T11:30:03.646Z,5.55
2023-05-05T11:32:30.343Z,5.30
2023-05-05T11:34:59.667Z,5.40
2023-05-05T11:37:27.558Z,5.78
2023-05-05T11:40:04.621Z,5.35
2023-05-05T11:42:31.128Z,4.93
2023-05-05T11:44:57.791Z,5.60
2023-05-05T11:47:25.502Z,5.47
2023-05-05T11:49:51.919Z,5.20
2023-05-05T11:52:18.348Z,5.30
2023-05-05T11:54:49.907Z,5.38
2023-05-05T11:57:19.542Z,5.32
2023-05-05T11:59:52.709Z,5.50
2023-05-05T12:02:19.842Z,6.00
2023-05-05T12:04:47.126Z,5.35
2023-05-05T12:07:21.087Z,4.82
2023-05-05T12:09:48.723Z,5.45
2023-05-05T12:12:15.914Z,4.90
2023-05-05T12:14:50.402Z,4.40
2023-05-05T12:17:17.540Z,4.75
2023-05-05T12:19:51.199Z,5.18
2023-05-05T12:22:28.087Z,4.50
2023-05-05T12:24:58.872Z,4.70
2023-05-05T12:27:26.942Z,5.10
2023-05-05T12:29:55.441Z,5.20
2023-05-05T12:32:27.685Z,5.25
2023-05-05T12:34:57.268Z,5.35
2023-05-05T12:37:25.306Z,5.60
2023-05-05T12:39:52.032Z,5.25
2023-05-05T12:42:18.841Z,5.70
2023-05-05T12:44:46.571Z,7.63
2023-05-05T12:47:13.829Z,7.30
2023-05-05T12:49:47.817Z,6.95
2023-05-05T12:52:16.106Z,5.93
2023-05-05T12:54:56.474Z,5.20
2023-05-05T12:57:23.272Z,5.95
2023-05-05T12:59:51.007Z,8.60
2023-05-05T13:02:17.439Z,9.73
2023-05-05T13:04:53.823Z,10.25
2023-05-05T13:07:21.355Z,11.00
2023-05-05T13:09:48.941Z,12.57
2023-05-05T13:12:17.533Z,11.70
2023-05-05T13:14:44.270Z,10.13
2023-05-05T13:17:12.923Z,9.73
2023-05-05T13:19:45.879Z,9.65
2023-05-05T13:22:13.333Z,9.48
2023-05-05T13:24:50.597Z,9.13
2023-05-05T13:27:18.566Z,8.55
2023-05-05T13:29:44.991Z,10.30
2023-05-05T13:32:11.564Z,12.15
2023-05-05T13:34:39.011Z,10.88
2023-05-05T13:37:05.595Z,11.60
2023-05-05T13:39:31.980Z,11.50
2023-05-05T13:41:58.429Z,11.77
2023-05-05T13:44:24.971Z,12.38
2023-05-05T13:46:51.464Z,12.48
2023-05-05T13:49:18.019Z,13.65
2023-05-05T13:51:46.106Z,12.00
2023-05-05T13:54:12.485Z,12.57
2023-05-05T13:56:38.966Z,12.30
2023-05-05T13:59:05.345Z,10.52
2023-05-05T14:01:31.805Z,9.18
2023-05-05T14:03:58.423Z,9.10
2023-05-05T14:06:25.739Z,9.40
2023-05-05T14:08:52.117Z,11.20
2023-05-05T14:11:20.650Z,11.27
2023-05-05T14:13:47.418Z,10.20
2023-05-05T14:16:13.910Z,10.15
2023-05-05T14:18:40.763Z,9.13
2023-05-05T14:21:07.231Z,8.73
2023-05-05T14:23:33.671Z,9.27
2023-05-05T14:26:00.416Z,8.95
2023-05-05T14:28:26.889Z,8.77
2023-05-05T14:30:53.310Z,8.80
2023-05-05T14:33:19.726Z,5.28
2023-05-05T14:35:46.108Z,3.30
2023-05-05T14:38:12.550Z,4.25
2023-05-05T14:40:38.945Z,5.20
2023-05-05T14:43:05.333Z,4.80
2023-05-05T14:45:31.752Z,4.82
2023-05-05T14:47:58.203Z,3.95
2023-05-05T14:50:24.663Z,4.57
2023-05-05T14:52:51.113Z,4.35
2023-05-05T14:55:17.599Z,4.53
2023-05-05T14:57:44.021Z,3.90
2023-05-05T15:00:10.928Z,2.92
2023-05-05T15:02:37.659Z,3.67
2023-05-05T15:05:04.458Z,3.40
2023-05-05T15:07:30.910Z,3.15
2023-05-05T15:09:57.396Z,2.50
2023-05-05T15:12:23.969Z,3.20
2023-05-05T15:14:50.466Z,2.70
2023-05-05T15:17:16.898Z,3.13
2023-05-05T15:19:43.282Z,4.82
2023-05-05T15:22:09.757Z,6.95
2023-05-05T15:24:37.096Z,8.02
2023-05-05T15:27:03.586Z,7.90
2023-05-05T15:29:30.024Z,8.20
2023-05-05T15:31:56.410Z,8.70
2023-05-05T15:34:22.803Z,9.07
2023-05-05T15:36:49.208Z,9.63
2023-05-05T15:39:15.675Z,9.93
2023-05-05T15:41:42.029Z,8.13
2023-05-05T15:44:11.666Z,6.43
2023-05-05T15:46:39.051Z,5.32
2023-05-05T15:49:05.545Z,4.97
2023-05-05T15:51:32.239Z,4.72
2023-05-05T15:53:59.372Z,5.43
2023-05-05T15:56:29.284Z,5.53
2023-05-05T15:58:56.614Z,7.47
2023-05-05T16:01:23.124Z,6.82
2023-05-05T16:03:49.613Z,7.40
2023-05-05T16:06:16.315Z,6.55
2023-05-05T16:08:42.773Z,5.38
2023-05-05T16:11:09.312Z,5.03
2023-05-05T16:13:35.858Z,5.40
2023-05-05T16:16:02.350Z,5.72
2023-05-05T16:18:28.760Z,5.65
2023-05-05T16:20:55.154Z,5.28
2023-05-05T16:23:21.555Z,4.70
2023-05-05T16:25:47.950Z,5.53
2023-05-05T16:28:14.368Z,6.35
2023-05-05T16:30:42.730Z,6.72
2023-05-05T16:33:09.239Z,7.45
2023-05-05T16:35:36.148Z,6.88
2023-05-05T16:38:02.520Z,4.85
2023-05-05T16:40:29.344Z,5.22
2023-05-05T16:42:55.794Z,5.68
2023-05-05T16:45:22.498Z,6.55
2023-05-05T16:47:49.057Z,5.50
2023-05-05T16:50:17.284Z,6.38
2023-05-05T16:52:43.704Z,6.13
2023-05-05T16:55:10.193Z,5.85
2023-05-05T16:57:36.983Z,4.95
2023-05-05T17:00:05.027Z,5.95
2023-05-05T17:02:31.556Z,3.80
2023-05-05T17:04:58.025Z,3.83
2023-05-05T17:07:24.481Z,4.20
2023-05-05T17:09:50.967Z,4.97
2023-05-05T17:12:17.403Z,6.70
2023-05-05T17:14:45.255Z,6.50
2023-05-05T17:17:11.921Z,5.47
2023-05-05T17:19:38.348Z,5.45
2023-05-05T17:22:04.977Z,5.38
2023-05-05T17:24:31.406Z,5.80
2023-05-05T17:26:58.306Z,6.00
2023-05-05T17:29:24.786Z,6.47
2023-05-05T17:31:51.574Z,6.78
2023-05-05T17:34:18.091Z,6.20
2023-05-05T17:36:44.522Z,6.32
2023-05-05T17:39:11.375Z,4.95
2023-05-05T17:41:37.765Z,6.30
2023-05-05T17:44:04.292Z,6.45
2023-05-05T17:46:30.712Z,5.88
2023-05-05T17:48:57.240Z,6.20
2023-05-05T17:51:23.726Z,6.25
2023-05-05T17:53:50.111Z,6.43
2023-05-05T17:56:16.536Z,6.82
2023-05-05T17:58:42.984Z,5.95
2023-05-05T18:01:13.459Z,7.32
2023-05-05T18:03:40.980Z,6.07
2023-05-05T18:06:07.665Z,6.78
2023-05-05T18:08:34.051Z,7.75
2023-05-05T18:11:01.716Z,7.47
2023-05-05T18:13:28.181Z,8.73
2023-05-05T18:15:54.593Z,6.57
2023-05-05T18:18:21.205Z,7.88
2023-05-05T18:20:47.648Z,7.30
2023-05-05T18:23:14.113Z,7.80
2023-05-05T18:25:41.401Z,7.95
2023-05-05T18:28:07.866Z,7.50
2023-05-05T18:30:35.557Z,8.50
2023-05-05T18:33:02.248Z,8.38
2023-05-05T18:35:28.951Z,8.82
2023-05-05T18:37:55.410Z,7.97
2023-05-05T18:40:22.289Z,9.73
2023-05-05T18:42:48.826Z,8.95
2023-05-05T18:45:15.313Z,9.38
2023-05-05T18:47:41.797Z,9.50
2023-05-05T18:50:09.853Z,8.05
2023-05-05T18:52:36.347Z,9.35
2023-05-05T18:55:02.800Z,9.35
2023-05-05T18:57:29.250Z,9.60
2023-05-05T18:59:55.686Z,9.95
2023-05-05T19:02:22.115Z,10.02
2023-05-05T19:04:48.606Z,9.80
2023-05-05T19:10:01.356Z,10.23
2023-05-05T19:12:27.731Z,11.10
2023-05-05T19:14:54.130Z,9.95
2023-05-05T19:17:20.486Z,12.02
2023-05-05T19:19:46.871Z,11.93
2023-05-05T19:22:13.255Z,11.15
2023-05-05T19:24:39.672Z,12.25
2023-05-05T19:27:08.010Z,11.98
2023-05-05T19:29:34.385Z,12.90
2023-05-05T19:32:00.914Z,12.73
2023-05-05T19:34:27.301Z,14.73
2023-05-05T19:36:53.680Z,13.60
2023-05-05T19:39:20.083Z,13.07
2023-05-05T19:41:46.484Z,10.98
2023-05-05T19:44:12.910Z,11.60
2023-05-05T19:46:39.445Z,12.32
2023-05-05T19:49:06.163Z,14.55
2023-05-05T19:51:32.574Z,15.25
2023-05-05T19:53:59.412Z,15.90
2023-05-05T19:56:26.191Z,16.13
2023-05-05T19:58:57.611Z,15.90
2023-05-05T20:01:24.227Z,29.55
2023-05-05T20:03:51.974Z,13.95
2023-05-05T20:06:18.651Z,15.60
2023-05-05T20:08:45.047Z,13.30
2023-05-05T20:11:11.844Z,15.55
2023-05-05T20:13:38.947Z,16.25
2023-05-05T20:16:06.441Z,13.82
2023-05-05T20:18:33.047Z,15.40
2023-05-05T20:20:59.516Z,12.90
2023-05-05T20:23:26.487Z,16.42
2023-05-05T20:25:53.674Z,16.30
2023-05-05T20:28:20.079Z,14.77
2023-05-05T20:30:46.599Z,15.55
2023-05-05T20:33:13.064Z,14.05
2023-05-05T20:35:39.561Z,15.23
2023-05-05T20:38:06.044Z,14.75
2023-05-05T20:40:33.617Z,15.15
2023-05-05T20:43:00.135Z,15.48
2023-05-05T20:45:26.686Z,16.80
2023-05-05T20:47:53.225Z,19.00
2023-05-05T20:50:22.492Z,17.95
2023-05-05T20:52:49.505Z,11.88
2023-05-05T20:55:15.963Z,12.98
2023-05-05T20:57:42.342Z,13.82
2023-05-05T21:00:09.286Z,16.42
2023-05-05T21:02:36.109Z,14.23
2023-05-05T21:05:02.942Z,11.25
2023-05-05T21:07:31.196Z,11.57
2023-05-05T21:09:57.704Z,10.57
2023-05-05T21:12:24.113Z,16.02
2023-05-05T21:14:50.576Z,15.63
2023-05-05T21:17:17.050Z,14.98
2023-05-05T21:19:43.429Z,10.23
2023-05-05T21:22:09.859Z,10.73
2023-05-05T21:24:38.206Z,11.57
2023-05-05T21:27:04.602Z,14.10
2023-05-05T21:29:37.329Z,15.88
2023-05-05T21:32:04.867Z,17.05
2023-05-05T21:34:31.409Z,14.05
2023-05-05T21:36:58.075Z,17.15
2023-05-05T21:39:24.884Z,12.57
2023-05-05T21:41:51.454Z,11.15
2023-05-05T21:44:17.845Z,9.90
2023-05-05T21:46:44.306Z,8.35
2023-05-05T21:49:15.334Z,11.63
2023-05-05T21:51:45.719Z,15.27
2023-05-05T21:54:12.123Z,15.95
2023-05-05T21:56:38.615Z,10.93
2023-05-05T21:59:05.419Z,10.93
2023-05-05T22:01:32.125Z,9.35
2023-05-05T22:03:58.643Z,10.23
2023-05-05T22:06:25.293Z,11.32
2023-05-05T22:08:51.744Z,12.60
2023-05-05T22:11:18.743Z,12.00
2023-05-05T22:13:46.417Z,11.02
2023-05-05T22:16:12.896Z,10.15
2023-05-05T22:18:39.288Z,10.48
2023-05-05T22:21:05.876Z,10.75
2023-05-05T22:23:32.276Z,8.88
2023-05-05T22:25:58.654Z,9.70
2023-05-05T22:28:25.124Z,8.00
2023-05-05T22:30:51.530Z,7.00
2023-05-05T22:33:18.956Z,7.50
2023-05-05T22:35:45.334Z,8.02
2023-05-05T22:38:11.764Z,9.15
2023-05-05T22:40:38.149Z,10.60
2023-05-05T22:43:04.650Z,10.25
2023-05-05T22:45:31.128Z,13.90
2023-05-05T22:47:57.695Z,11.00
2023-05-05T22:50:24.379Z,11.43
2023-05-05T22:52:50.851Z,10.82
2023-05-05T22:55:17.504Z,13.15
2023-05-05T22:57:43.883Z,8.32
2023-05-05T23:00:10.739Z,10.15
2023-05-05T23:02:37.852Z,10.82
2023-05-05T23:05:04.510Z,10.63
2023-05-05T23:07:30.924Z,10.02
2023-05-05T23:09:57.314Z,9.68
2023-05-05T23:12:23.726Z,11.38
2023-05-05T23:14:50.353Z,13.10
2023-05-05T23:17:16.845Z,14.70
2023-05-05T23:19:43.260Z,18.95
2023-05-05T23:22:09.634Z,17.13
2023-05-05T23:24:36.094Z,18.50
2023-05-05T23:27:03.115Z,16.45
2023-05-05T23:29:29.719Z,16.27
2023-05-05T23:31:56.659Z,16.83
2023-05-05T23:34:23.184Z,14.65
2023-05-05T23:36:49.805Z,12.65
2023-05-05T23:39:16.446Z,11.43
2023-05-05T23:41:42.827Z,10.45
2023-05-05T23:44:09.226Z,10.85
2023-05-05T23:46:35.688Z,12.55
2023-05-05T23:49:02.086Z,12.88
2023-05-05T23:51:28.500Z,16.17
2023-05-05T23:53:56.515Z,16.05
2023-05-05T23:56:23.635Z,15.40
2023-05-05T23:58:50.004Z,17.23
